Time;durP1;ratioP1;P1;durP2;ratioP2;P2;SDS_P1;SDS_P2;PMS_P1;PMS_P2;Temp;Humidity;BMP_temperature;BMP_pressure;BME280_temperature;BME280_humidity;BME280_pressure;Samples;Min_cycle;Max_cycle;Signal;HPM_P1;HPM_P2
2022/05/03 05:03:51;;;;;;;22.73;15.02;;;10.10;99.90;;;;;;4887225;29;20037;-79
2022/05/03 05:06:19;;;;;;;24.95;17.20;;;10.20;99.90;;;;;;4887331;29;20033;-78
2022/05/03 05:08:45;;;;;;;23.63;17.33;;;10.30;99.90;;;;;;4889039;29;20052;-79
2022/05/03 05:11:12;;;;;;;23.83;16.92;;;10.40;99.90;;;;;;4887078;29;20097;-77
2022/05/03 05:13:38;;;;;;;22.30;17.15;;;10.60;99.90;;;;;;4887589;29;20033;-76
2022/05/03 05:16:06;;;;;;;23.73;17.88;;;10.70;99.90;;;;;;4887816;29;20108;-79
2022/05/03 05:18:32;;;;;;;23.20;17.10;;;10.80;99.90;;;;;;4888822;29;20041;-78
2022/05/03 05:20:58;;;;;;;24.73;17.23;;;10.80;99.90;;;;;;4887749;29;20036;-79
2022/05/03 05:23:25;;;;;;;23.05;16.88;;;11.00;99.90;;;;;;4871618;29;20040;-79
2022/05/03 05:25:51;;;;;;;21.05;15.65;;;11.10;99.90;;;;;;4888608;29;20084;-79
2022/05/03 05:28:19;;;;;;;25.38;15.95;;;11.20;99.90;;;;;;4887877;29;20024;-77
2022/05/03 05:30:45;;;;;;;19.20;14.38;;;11.30;99.90;;;;;;4888383;29;20055;-79
2022/05/03 05:33:11;;;;;;;20.25;14.70;;;11.40;99.90;;;;;;4888361;29;20080;-78
2022/05/03 05:35:37;;;;;;;21.92;15.10;;;11.40;99.90;;;;;;4886808;29;20307;-79
2022/05/03 05:38:07;;;;;;;18.00;14.65;;;11.50;99.90;;;;;;4871785;29;20025;-81
2022/05/03 05:40:32;;;;;;;19.10;14.32;;;11.50;99.90;;;;;;4887185;29;20091;-78
2022/05/03 05:43:02;;;;;;;19.13;15.10;;;11.60;99.90;;;;;;4890925;29;20318;-79
2022/05/03 05:45:31;;;;;;;20.08;14.77;;;11.60;99.90;;;;;;4897313;29;20037;-77
2022/05/03 05:47:57;;;;;;;19.30;14.25;;;11.70;99.90;;;;;;4891146;29;20032;-80
2022/05/03 05:50:25;;;;;;;17.85;14.25;;;11.70;99.90;;;;;;4886461;29;20036;-81
2022/05/03 05:55:39;;;;;;;18.20;14.30;;;11.90;99.90;;;;;;4888085;29;20056;-79
2022/05/03 05:58:07;;;;;;;21.23;14.88;;;12.00;99.90;;;;;;4888215;29;20255;-79
2022/05/03 06:00:33;;;;;;;17.33;14.13;;;12.10;99.90;;;;;;4887764;29;20041;-80
2022/05/03 06:02:59;;;;;;;21.00;14.02;;;12.30;99.90;;;;;;4878593;29;20057;-79
2022/05/03 06:05:25;;;;;;;19.33;13.88;;;12.40;99.90;;;;;;4867671;29;20074;-79
2022/05/03 06:07:52;;;;;;;16.50;13.55;;;12.60;99.90;;;;;;4867875;29;20029;-78
2022/05/03 06:10:18;;;;;;;19.98;13.98;;;12.80;99.90;;;;;;4868726;29;20041;-79
2022/05/03 06:12:44;;;;;;;17.98;13.77;;;12.90;99.90;;;;;;4869031;29;20029;-78
2022/05/03 06:15:11;;;;;;;17.92;13.98;;;13.00;99.90;;;;;;4859843;29;20026;-79
2022/05/03 06:17:37;;;;;;;16.75;13.25;;;13.20;99.90;;;;;;4887066;29;20040;-78
2022/05/03 06:20:03;;;;;;;17.25;13.40;;;13.30;99.90;;;;;;4887831;29;20378;-79
2022/05/03 06:22:28;;;;;;;18.30;13.57;;;13.40;99.90;;;;;;4886188;29;20072;-79
2022/05/03 06:24:54;;;;;;;17.63;13.10;;;13.60;99.90;;;;;;4887947;29;20310;-78
2022/05/03 06:27:20;;;;;;;14.80;12.95;;;13.70;99.90;;;;;;4887237;29;20033;-78
2022/05/03 06:29:45;;;;;;;17.48;12.23;;;13.80;99.90;;;;;;4887966;29;20057;-77
2022/05/03 06:32:12;;;;;;;17.85;12.13;;;13.90;99.70;;;;;;4886766;29;20041;-77
2022/05/03 06:34:38;;;;;;;16.05;12.40;;;14.10;99.30;;;;;;4887519;29;20033;-76
2022/05/03 06:37:04;;;;;;;15.23;11.82;;;14.20;98.90;;;;;;4886319;29;20390;-76
2022/05/03 06:39:30;;;;;;;15.50;11.63;;;14.40;98.40;;;;;;4886374;29;20196;-80
2022/05/03 06:41:56;;;;;;;14.95;12.43;;;14.60;97.80;;;;;;4886642;29;20040;-79
2022/05/03 06:44:22;;;;;;;16.88;12.18;;;14.70;97.20;;;;;;4887304;29;20024;-79
2022/05/03 06:46:49;;;;;;;15.07;12.30;;;14.80;96.80;;;;;;4889477;29;20041;-79
2022/05/03 06:49:15;;;;;;;16.80;11.82;;;14.90;96.40;;;;;;4889390;29;20216;-79
2022/05/03 06:51:41;;;;;;;14.52;12.30;;;14.90;96.00;;;;;;4889602;29;20315;-79
2022/05/03 06:54:07;;;;;;;14.00;12.07;;;14.90;96.10;;;;;;4890006;29;20055;-77
2022/05/03 06:56:35;;;;;;;14.88;12.10;;;14.90;96.20;;;;;;4889431;29;20075;-79
2022/05/03 06:59:08;;;;;;;21.13;13.18;;;14.90;95.90;;;;;;4889910;29;20188;-78
2022/05/03 07:01:34;;;;;;;16.58;12.00;;;15.00;95.80;;;;;;4889948;29;20228;-79
2022/05/03 07:03:59;;;;;;;14.93;11.57;;;15.20;95.60;;;;;;4890615;29;20057;-79
2022/05/03 07:06:25;;;;;;;17.10;11.50;;;15.30;95.30;;;;;;4890354;29;20089;-79
2022/05/03 07:08:57;;;;;;;16.95;11.75;;;15.50;95.30;;;;;;4891200;29;20032;-79
2022/05/03 07:11:35;;;;;;;15.18;11.75;;;15.70;94.90;;;;;;4890132;29;20088;-79
2022/05/03 07:14:04;;;;;;;14.93;10.93;;;15.80;94.60;;;;;;4884150;29;20055;-77
2022/05/03 07:16:33;;;;;;;;;;;15.90;94.10;;;;;;4887499;29;20104;-79
2022/05/03 07:24:50;;;;;;;18.00;10.00;;;16.50;93.00;;;;;;4890422;29;20100;-78
2022/05/03 07:27:17;;;;;;;17.92;10.55;;;16.80;92.40;;;;;;4884813;29;20032;-80
2022/05/03 07:29:51;;;;;;;15.30;9.98;;;16.90;92.10;;;;;;4890602;29;20033;-78
2022/05/03 07:35:40;;;;;;;13.35;10.25;;;17.20;90.80;;;;;;4899121;29;20031;-78
2022/05/03 07:38:18;;;;;;;13.15;9.85;;;17.40;90.80;;;;;;4901333;29;20029;-76
2022/05/03 07:40:44;;;;;;;15.15;10.60;;;17.40;90.20;;;;;;4897019;29;20239;-80
2022/05/03 07:46:26;;;;;;;10.55;8.55;;;17.70;89.90;;;;;;4890866;29;20041;-78
2022/05/03 07:48:52;;;;;;;11.95;9.38;;;17.70;88.80;;;;;;4888700;29;20036;-78
2022/05/03 07:51:19;;;;;;;10.55;8.13;;;17.80;87.80;;;;;;4889389;29;20033;-78
2022/05/03 07:54:25;;;;;;;10.63;8.43;;;17.70;88.40;;;;;;4887610;29;20085;-78
2022/05/03 07:57:43;;;;;;;12.75;9.40;;;17.70;88.60;;;;;;4886828;29;20044;-79
2022/05/03 08:00:18;;;;;;;10.30;8.95;;;17.70;88.30;;;;;;4886522;29;20028;-78
2022/05/03 08:02:47;;;;;;;9.52;8.50;;;17.90;88.50;;;;;;4884889;29;20044;-79
2022/05/03 08:05:14;;;;;;;;;;;17.90;88.80;;;;;;4871706;29;20108;-78
2022/05/03 08:07:49;;;;;;;9.48;7.50;;;18.20;87.80;;;;;;4868431;29;19912;-78
2022/05/03 08:10:14;;;;;;;11.70;8.73;;;18.60;87.60;;;;;;4852196;29;20239;-79
2022/05/03 08:12:50;;;;;;;9.63;8.32;;;18.90;85.70;;;;;;4851799;29;20025;-78
2022/05/03 08:15:44;;;;;;;10.32;7.45;;;19.10;85.40;;;;;;4864443;29;20036;-79
2022/05/03 08:18:10;;;;;;;10.18;7.55;;;19.70;84.00;;;;;;4869897;29;20375;-78
2022/05/03 08:21:19;;;;;;;10.23;6.28;;;19.90;82.80;;;;;;4870525;29;20034;-79
2022/05/03 08:23:48;;;;;;;8.75;7.30;;;20.00;81.90;;;;;;4871107;29;20032;-78
2022/05/03 08:26:45;;;;;;;10.05;6.95;;;20.00;81.90;;;;;;4869432;29;20045;-78
2022/05/03 08:29:13;;;;;;;9.70;7.38;;;19.90;80.80;;;;;;4870642;29;20339;-78
2022/05/03 08:36:04;;;;;;;9.38;7.13;;;19.60;80.60;;;;;;4849677;29;20032;-78
2022/05/03 08:42:02;;;;;;;11.07;6.75;;;19.40;81.60;;;;;;4850456;29;20048;-79
2022/05/03 08:44:29;;;;;;;9.35;7.15;;;19.60;82.00;;;;;;4849838;29;20097;-78
2022/05/03 08:47:24;;;;;;;9.85;7.32;;;19.80;82.00;;;;;;4859983;29;20334;-78
2022/05/03 08:50:10;;;;;;;10.25;7.40;;;19.80;81.30;;;;;;4852248;29;20050;-79
2022/05/03 08:52:48;;;;;;;9.02;6.90;;;19.70;81.00;;;;;;4851561;29;20090;-78
2022/05/03 08:55:43;;;;;;;8.57;7.05;;;19.60;80.70;;;;;;4852184;29;20087;-78
2022/05/03 08:58:09;;;;;;;9.57;6.75;;;19.70;81.00;;;;;;4847988;29;20126;-78
2022/05/03 09:03:37;;;;;;;10.93;6.78;;;20.00;79.80;;;;;;4936785;23;20040;-80
2022/05/03 09:10:25;;;;;;;9.63;6.63;;;20.50;78.20;;;;;;4925957;29;20023;-75
2022/05/03 09:16:49;;;;;;;11.77;6.88;;;21.00;76.60;;;;;;4911533;29;20277;-75
2022/05/03 09:19:49;;;;;;;7.95;5.78;;;21.60;76.60;;;;;;4925697;29;20040;-79
2022/05/03 09:26:37;;;;;;;6.65;5.70;;;22.00;74.40;;;;;;4930357;29;20062;-75
2022/05/03 09:29:05;;;;;;;9.25;5.80;;;21.70;73.70;;;;;;4936202;29;20032;-77
2022/05/03 09:31:33;;;;;;;7.07;5.63;;;21.80;74.20;;;;;;4930177;29;20032;-78
2022/05/03 09:34:01;;;;;;;9.30;5.30;;;21.80;72.80;;;;;;4890870;29;20233;-76
2022/05/03 09:39:47;;;;;;;7.50;4.65;;;21.90;73.30;;;;;;4907024;29;20276;-78
2022/05/03 09:42:20;;;;;;;8.93;5.10;;;21.90;72.50;;;;;;4890508;29;20041;-79
2022/05/03 09:44:49;;;;;;;9.68;5.40;;;21.60;72.50;;;;;;4907410;29;20310;-77
2022/05/03 09:50:44;;;;;;;5.72;4.40;;;21.80;73.50;;;;;;4890225;29;20206;-77
2022/05/03 09:53:17;;;;;;;5.43;3.55;;;21.90;72.30;;;;;;4908630;29;20088;-78
2022/05/03 09:55:53;;;;;;;10.90;4.10;;;21.90;71.70;;;;;;4891152;29;20024;-78
2022/05/03 09:58:51;;;;;;;6.22;4.30;;;21.90;71.50;;;;;;4915528;29;20387;-79
2022/05/03 10:01:17;;;;;;;6.28;4.35;;;21.90;71.00;;;;;;4924863;29;20040;-78
2022/05/03 10:04:07;;;;;;;5.82;4.05;;;21.80;71.60;;;;;;4899198;29;20083;-78
2022/05/03 10:06:34;;;;;;;5.30;3.50;;;21.90;71.70;;;;;;4878328;29;20055;-78
2022/05/03 10:09:15;;;;;;;6.20;3.75;;;22.20;71.20;;;;;;4887387;29;20116;-77
2022/05/03 10:11:49;;;;;;;4.43;3.22;;;22.10;70.20;;;;;;4888886;29;20156;-78
2022/05/03 10:14:34;;;;;;;4.55;3.13;;;22.20;70.50;;;;;;4878245;29;20063;-80
2022/05/03 10:20:50;;;;;;;5.60;3.92;;;22.40;69.60;;;;;;4890595;29;20132;-80
2022/05/03 10:23:40;;;;;;;7.60;4.82;;;22.50;69.70;;;;;;4901978;29;20080;-77
2022/05/03 10:26:09;;;;;;;5.88;3.75;;;22.00;70.50;;;;;;4891988;29;20319;-79
2022/05/03 10:29:13;;;;;;;6.03;3.80;;;22.00;71.00;;;;;;4890578;29;20737;-80
2022/05/03 10:32:05;;;;;;;7.13;3.72;;;21.90;71.50;;;;;;4905916;29;20040;-79
2022/05/03 10:34:57;;;;;;;6.68;3.65;;;21.80;72.20;;;;;;4890277;29;20045;-79
2022/05/03 10:37:56;;;;;;;9.32;4.13;;;22.00;72.20;;;;;;4890331;29;20082;-80
2022/05/03 10:41:21;;;;;;;5.47;3.85;;;22.00;71.90;;;;;;4888830;29;20035;-78
2022/05/03 10:43:52;;;;;;;4.78;3.17;;;21.90;71.30;;;;;;4810684;29;20219;-78
2022/05/03 10:46:22;;;;;;;;;;;22.00;71.90;;;;;;4813351;29;20110;-79
2022/05/03 10:49:11;;;;;;;5.50;3.35;;;22.10;71.60;;;;;;4809397;29;19920;-79
2022/05/03 10:51:37;;;;;;;6.20;3.33;;;22.10;70.20;;;;;;4816435;29;20066;-77
2022/05/03 10:54:06;;;;;;;5.05;2.88;;;22.20;70.10;;;;;;4816497;29;20042;-78
2022/05/03 10:56:32;;;;;;;9.88;3.33;;;22.20;69.40;;;;;;4814203;29;20321;-79
2022/05/03 10:59:06;;;;;;;10.65;2.88;;;22.30;71.10;;;;;;4816171;29;20079;-79
2022/05/03 11:01:55;;;;;;;3.97;2.72;;;22.40;69.10;;;;;;4796914;29;20059;-79
2022/05/03 11:04:25;;;;;;;4.18;2.88;;;22.60;68.80;;;;;;4797819;30;20035;-78
2022/05/03 11:07:21;;;;;;;3.75;2.92;;;22.60;68.20;;;;;;4797948;30;20222;-77
2022/05/03 11:13:54;;;;;;;6.88;3.63;;;23.20;68.40;;;;;;4812928;29;20084;-78
2022/05/03 11:16:27;;;;;;;4.70;3.35;;;23.30;67.60;;;;;;4797883;29;20058;-78
2022/05/03 11:19:25;;;;;;;3.58;2.72;;;23.50;68.00;;;;;;4821045;29;20221;-78
2022/05/03 11:25:13;;;;;;;4.80;3.35;;;24.30;65.60;;;;;;4873239;29;20041;-79
2022/05/03 11:27:40;;;;;;;6.60;3.33;;;24.90;64.20;;;;;;4878276;29;20032;-78
2022/05/03 11:30:18;;;;;;;4.80;3.22;;;25.60;62.80;;;;;;4890130;29;20048;-77
2022/05/03 11:33:05;;;;;;;3.72;3.25;;;26.50;62.00;;;;;;4889305;29;20029;-77
2022/05/03 11:35:31;;;;;;;5.28;3.05;;;27.20;61.40;;;;;;4896018;29;20284;-78
2022/05/03 11:37:57;;;;;;;7.20;2.85;;;28.20;59.80;;;;;;4870762;29;20058;-79
2022/05/03 11:40:27;;;;;;;3.13;2.72;;;29.00;59.30;;;;;;4871173;29;20044;-79
2022/05/03 11:42:56;;;;;;;3.20;2.80;;;29.60;57.70;;;;;;4870951;29;20037;-78
2022/05/03 11:45:25;;;;;;;4.38;2.70;;;30.40;57.10;;;;;;4885361;29;20048;-79
2022/05/03 11:47:54;;;;;;;3.83;2.92;;;30.90;55.70;;;;;;4873856;29;20104;-77
2022/05/03 11:56:34;;;;;;;5.13;2.42;;;32.50;53.90;;;;;;4871920;29;20089;-79
2022/05/03 11:59:03;;;;;;;6.82;2.80;;;33.50;51.50;;;;;;4899789;29;20037;-77
2022/05/03 12:01:33;;;;;;;7.47;2.90;;;34.20;51.00;;;;;;4893957;29;20233;-78
2022/05/03 12:04:50;;;;;;;4.30;2.60;;;33.80;50.70;;;;;;4909484;29;20259;-79
2022/05/03 12:07:53;;;;;;;3.63;2.88;;;33.80;51.30;;;;;;4904810;29;20378;-78
2022/05/03 12:10:40;;;;;;;5.28;3.03;;;32.70;51.40;;;;;;4889787;29;20044;-79
2022/05/03 12:20:08;;;;;;;3.83;2.60;;;29.40;55.10;;;;;;4871286;29;20036;-79
2022/05/03 12:22:44;;;;;;;4.32;2.45;;;28.90;54.80;;;;;;4890490;29;20057;-79
2022/05/03 12:25:24;;;;;;;5.95;2.70;;;28.40;55.80;;;;;;4908426;29;20024;-77
2022/05/03 12:27:50;;;;;;;5.07;2.70;;;27.70;57.60;;;;;;4892501;29;20070;-77
2022/05/03 12:30:35;;;;;;;;;;;;;;;;;;;;;
2022/05/03 12:33:21;;;;;;;;;;;;;;;;;;;;;
2022/05/03 12:35:59;;;;;;;5.80;2.80;;;25.90;61.10;;;;;;4902820;29;19941;-79
2022/05/03 12:38:26;;;;;;;4.78;2.90;;;25.20;61.40;;;;;;4890418;29;20075;-79
2022/05/03 12:41:05;;;;;;;7.05;2.45;;;24.60;62.60;;;;;;4899477;29;20105;-78
2022/05/03 12:43:43;;;;;;;7.82;3.00;;;24.40;63.90;;;;;;4888849;29;20060;-78
2022/05/03 12:46:09;;;;;;;7.30;3.40;;;24.30;64.40;;;;;;4872410;29;20048;-77
2022/05/03 12:49:13;;;;;;;5.28;2.67;;;24.20;64.90;;;;;;4898890;29;20038;-77
2022/05/03 12:51:44;;;;;;;5.03;2.63;;;23.90;65.10;;;;;;4884153;29;20060;-79
2022/05/03 12:54:14;;;;;;;8.48;3.47;;;23.70;67.70;;;;;;4891633;29;20327;-77
2022/05/03 12:59:27;;;;;;;5.05;2.65;;;22.80;64.90;;;;;;4907911;29;20332;-78
2022/05/03 13:01:58;;;;;;;4.85;2.95;;;21.60;68.00;;;;;;4887785;29;20072;-78
2022/05/03 13:04:28;;;;;;;5.47;2.83;;;20.90;70.10;;;;;;4873949;29;20040;-79
2022/05/03 13:07:02;;;;;;;;;;;20.40;71.20;;;;;;4898238;29;20033;-76
2022/05/03 13:09:51;;;;;;;6.03;2.77;;;20.10;73.00;;;;;;4897812;29;19908;-76
2022/05/03 13:12:23;;;;;;;6.68;3.00;;;19.70;74.20;;;;;;4900061;29;20048;-77
2022/05/03 13:14:49;;;;;;;4.68;3.00;;;19.30;76.60;;;;;;4891623;29;20049;-81
2022/05/03 13:17:14;;;;;;;6.78;3.40;;;19.00;77.40;;;;;;4888706;29;20197;-80
2022/05/03 13:19:41;;;;;;;4.63;3.05;;;18.90;77.50;;;;;;4912214;29;20060;-79
2022/05/03 13:22:07;;;;;;;4.72;3.28;;;18.80;79.10;;;;;;4890817;29;20214;-77
2022/05/03 13:24:33;;;;;;;5.00;3.30;;;18.60;80.00;;;;;;4891209;29;20021;-78
2022/05/03 13:26:59;;;;;;;4.18;3.35;;;18.50;80.60;;;;;;4907621;29;20196;-79
2022/05/03 13:29:50;;;;;;;6.57;2.95;;;18.30;80.90;;;;;;4907213;29;20056;-79
2022/05/03 13:32:16;;;;;;;4.65;2.70;;;18.20;80.50;;;;;;4898301;29;20061;-80
2022/05/03 13:34:42;;;;;;;5.60;3.00;;;18.10;80.10;;;;;;4903224;29;20033;-80
2022/05/03 13:42:38;;;;;;;6.50;3.47;;;18.30;82.80;;;;;;4889593;29;20037;-79
2022/05/03 13:45:05;;;;;;;8.32;4.18;;;18.30;84.00;;;;;;4888538;29;20017;-79
2022/05/03 13:47:31;;;;;;;8.85;4.90;;;18.30;85.10;;;;;;4887915;29;20374;-77
2022/05/03 13:49:57;;;;;;;7.93;5.47;;;18.20;87.10;;;;;;4887327;29;20315;-79
2022/05/03 13:52:32;;;;;;;10.95;5.93;;;18.10;88.80;;;;;;4871718;29;20026;-80
2022/05/03 13:54:59;;;;;;;9.02;5.40;;;18.00;89.90;;;;;;4869099;29;20368;-76
2022/05/03 13:57:24;;;;;;;9.05;5.80;;;17.90;90.60;;;;;;4872738;29;20028;-78
2022/05/03 13:59:50;;;;;;;9.65;5.25;;;17.80;90.80;;;;;;4886883;29;20108;-80
2022/05/03 14:02:19;;;;;;;10.30;4.90;;;17.70;91.00;;;;;;4901539;29;20329;-78
2022/05/03 14:04:45;;;;;;;8.93;4.65;;;17.70;90.70;;;;;;4887170;29;20025;-79
2022/05/03 14:07:12;;;;;;;6.85;4.25;;;17.50;90.50;;;;;;4874154;29;20040;-76
2022/05/03 14:09:38;;;;;;;5.75;3.42;;;17.50;91.20;;;;;;4873131;29;20092;-77
2022/05/03 14:12:06;;;;;;;5.43;3.35;;;17.50;91.20;;;;;;4890541;29;20119;-77
2022/05/03 14:14:32;;;;;;;6.50;3.53;;;17.40;91.90;;;;;;4902325;29;20033;-77
2022/05/03 14:16:58;;;;;;;5.45;3.90;;;17.40;91.90;;;;;;4902025;29;20196;-76
2022/05/03 14:19:24;;;;;;;4.82;3.63;;;17.50;92.30;;;;;;4889021;29;20175;-80
2022/05/03 14:21:57;;;;;;;5.43;3.40;;;17.50;92.00;;;;;;4888605;29;20037;-79
2022/05/03 14:24:23;;;;;;;6.25;3.45;;;17.30;92.20;;;;;;4887728;29;20041;-78
2022/05/03 14:26:50;;;;;;;6.07;2.90;;;17.20;92.10;;;;;;4888780;29;20021;-77
2022/05/03 14:33:06;;;;;;;;;;;17.20;93.40;;;;;;4888519;29;20047;-79
2022/05/03 14:35:34;;;;;;;8.25;3.58;;;17.10;92.50;;;;;;4886682;29;19912;-78
2022/05/03 14:38:00;;;;;;;6.65;3.30;;;17.10;94.10;;;;;;4878932;29;20078;-79
2022/05/03 14:40:26;;;;;;;5.22;3.30;;;17.20;93.90;;;;;;4869384;29;20417;-80
2022/05/03 14:42:51;;;;;;;4.82;3.03;;;16.90;93.00;;;;;;4881544;29;20040;-79
2022/05/03 14:45:29;;;;;;;6.88;3.03;;;16.70;93.30;;;;;;4887162;29;20029;-79
2022/05/03 14:48:24;;;;;;;7.38;3.45;;;16.80;93.40;;;;;;4887899;29;20033;-80
2022/05/03 14:50:56;;;;;;;7.47;3.47;;;16.90;94.60;;;;;;4871433;29;20056;-80
2022/05/03 15:03:44;;;;;;;4.82;3.47;;;17.40;93.10;;;;;;4887755;29;20128;-78
2022/05/03 15:06:11;;;;;;;5.07;3.35;;;17.40;93.30;;;;;;4891004;29;20025;-80
2022/05/03 15:08:36;;;;;;;5.63;3.25;;;17.60;93.30;;;;;;4892727;29;20287;-79
2022/05/03 15:11:17;;;;;;;4.40;3.10;;;17.60;93.30;;;;;;4906547;29;20073;-79
2022/05/03 15:13:52;;;;;;;5.82;3.58;;;17.50;94.10;;;;;;4927865;29;20052;-80
2022/05/03 15:16:18;;;;;;;7.85;3.10;;;17.40;94.40;;;;;;4893655;29;20084;-79
2022/05/03 15:18:46;;;;;;;5.13;3.00;;;17.30;93.90;;;;;;4908913;29;20040;-79
2022/05/03 15:21:15;;;;;;;5.38;2.90;;;17.20;93.60;;;;;;4893014;29;20295;-79
2022/05/03 15:26:44;;;;;;;5.68;3.70;;;17.50;92.60;;;;;;4890961;29;20067;-78
2022/05/03 15:29:15;;;;;;;9.18;4.03;;;17.60;93.00;;;;;;4908010;29;20033;-78
2022/05/03 15:32:09;;;;;;;6.93;3.78;;;17.40;92.50;;;;;;4911254;29;20041;-77
2022/05/03 15:34:43;;;;;;;7.40;4.03;;;17.50;93.20;;;;;;4915048;29;20036;-77
2022/05/03 15:37:46;;;;;;;;;;;;;;;;;;;;;
2022/05/03 15:40:19;;;;;;;6.20;3.90;;;17.70;92.70;;;;;;4908329;29;20322;-79
2022/05/03 15:42:45;;;;;;;5.90;4.15;;;17.70;92.80;;;;;;4894315;29;20040;-79
2022/05/03 15:45:11;;;;;;;5.38;4.03;;;18.00;91.80;;;;;;4907156;29;20020;-80
2022/05/03 15:52:14;;;;;;;5.95;3.58;;;19.00;91.40;;;;;;4841694;29;20034;-80
2022/05/03 15:54:56;;;;;;;7.53;3.50;;;19.90;89.00;;;;;;4846851;29;20045;-79
2022/05/03 15:57:23;;;;;;;6.68;3.60;;;21.50;86.00;;;;;;4835051;29;20131;-77
2022/05/03 15:59:52;;;;;;;5.50;2.92;;;23.00;80.20;;;;;;4835342;29;20093;-78
2022/05/03 16:02:19;;;;;;;6.38;2.55;;;25.30;75.20;;;;;;4849622;29;20037;-77
2022/05/03 16:04:45;;;;;;;4.68;2.25;;;27.10;69.70;;;;;;4850518;29;20336;-79
2022/05/03 16:07:11;;;;;;;5.95;2.90;;;28.70;67.50;;;;;;4847637;29;20037;-79
2022/05/03 16:09:40;;;;;;;5.95;3.00;;;29.70;63.00;;;;;;4848220;29;20053;-79
2022/05/03 16:12:07;;;;;;;5.93;2.92;;;30.00;62.00;;;;;;4850561;29;20038;-78
2022/05/03 16:14:34;;;;;;;6.22;2.78;;;30.40;61.90;;;;;;4835426;29;20034;-78
2022/05/03 16:17:04;;;;;;;6.00;3.00;;;31.60;58.30;;;;;;4849422;29;20041;-79
2022/05/03 16:19:34;;;;;;;6.43;2.80;;;32.10;58.40;;;;;;4851325;29;20065;-79
2022/05/03 16:25:05;;;;;;;4.60;2.67;;;33.70;56.10;;;;;;4849835;29;20113;-76
2022/05/03 16:27:34;;;;;;;4.47;2.20;;;34.50;53.70;;;;;;4873145;29;20047;-78
2022/05/03 16:30:01;;;;;;;4.85;2.40;;;33.60;54.70;;;;;;4876860;29;20119;-77
2022/05/03 16:32:27;;;;;;;4.68;2.40;;;33.60;55.00;;;;;;4873050;29;20049;-77
2022/05/03 16:34:58;;;;;;;4.15;1.83;;;34.00;54.60;;;;;;4891244;29;20037;-77
2022/05/03 16:43:20;;;;;;;3.67;1.33;;;32.50;53.70;;;;;;4893272;29;20235;-78
2022/05/03 16:50:47;;;;;;;;;;;;;;;;;;;;;
2022/05/03 16:53:39;;;;;;;3.28;1.75;;;28.30;58.80;;;;;;4871476;29;20383;-80
2022/05/03 16:56:27;;;;;;;4.22;1.92;;;26.80;63.40;;;;;;4882724;29;20234;-80
2022/05/03 17:01:58;;;;;;;5.50;1.90;;;24.70;67.60;;;;;;4903098;29;20036;-76
2022/05/03 17:04:24;;;;;;;7.30;2.22;;;23.70;69.40;;;;;;4906589;29;20052;-77
2022/05/03 17:06:56;;;;;;;11.48;2.78;;;22.90;72.10;;;;;;4889268;29;20036;-79
2022/05/03 17:17:20;;;;;;;4.32;2.38;;;21.70;77.20;;;;;;4801089;29;20127;-76
2022/05/03 17:19:47;;;;;;;5.45;2.85;;;21.60;77.80;;;;;;4797885;30;20344;-77
2022/05/03 17:22:12;;;;;;;5.30;2.58;;;21.30;76.90;;;;;;4798314;30;20094;-80
2022/05/03 17:24:48;;;;;;;4.70;2.65;;;21.10;79.10;;;;;;4797095;29;20068;-78
2022/05/03 17:27:14;;;;;;;4.50;2.95;;;20.80;78.50;;;;;;4798588;30;20051;-80
2022/05/03 17:29:48;;;;;;;5.72;2.80;;;20.60;79.40;;;;;;4794945;29;20060;-81
2022/05/03 17:32:13;;;;;;;5.65;2.65;;;20.50;81.70;;;;;;4794964;29;20084;-81
2022/05/03 17:34:39;;;;;;;5.68;3.05;;;20.60;79.50;;;;;;4794325;29;20394;-80
2022/05/03 17:37:24;;;;;;;6.53;2.80;;;21.00;79.70;;;;;;4794818;29;20042;-79
2022/05/03 17:39:53;;;;;;;5.70;3.33;;;22.20;77.10;;;;;;4794908;30;20133;-80
2022/05/03 17:42:19;;;;;;;;;;;22.80;73.90;;;;;;4795633;30;20362;-80
2022/05/03 17:45:13;;;;;;;3.83;2.60;;;22.70;73.90;;;;;;4795445;29;19921;-81
2022/05/03 17:56:55;;;;;;;4.88;2.83;;;20.30;81.00;;;;;;4928771;23;20314;-81
2022/05/03 17:59:52;;;;;;;4.47;2.80;;;19.90;82.00;;;;;;4908554;29;20024;-79
2022/05/03 18:02:55;;;;;;;4.05;3.08;;;19.70;83.00;;;;;;4894415;29;20040;-81
2022/05/03 18:06:21;;;;;;;4.95;3.30;;;19.30;83.90;;;;;;4829865;29;20055;-79
2022/05/03 18:08:50;;;;;;;6.20;3.20;;;19.00;85.10;;;;;;4830673;29;20320;-80
2022/05/03 18:11:17;;;;;;;6.35;3.28;;;18.90;86.30;;;;;;4814615;29;20117;-79
2022/05/03 18:17:33;;;;;;;7.03;3.72;;;18.40;85.80;;;;;;4829528;29;20159;-80
2022/05/03 18:19:59;;;;;;;6.55;4.35;;;18.00;87.40;;;;;;4830406;29;20042;-80
2022/05/03 18:22:25;;;;;;;6.30;3.95;;;17.80;88.60;;;;;;4830600;29;20030;-79
2022/05/03 18:25:13;;;;;;;6.30;4.13;;;17.60;89.20;;;;;;4830367;29;20452;-78
2022/05/03 18:27:54;;;;;;;7.72;4.07;;;17.40;89.70;;;;;;4828988;29;20054;-79
2022/05/03 18:30:24;;;;;;;5.13;3.50;;;17.40;90.20;;;;;;4814985;29;20054;-79
2022/05/03 18:32:54;;;;;;;6.07;3.60;;;17.30;90.40;;;;;;4830097;29;20092;-80
2022/05/03 18:35:26;;;;;;;5.68;3.60;;;17.20;90.90;;;;;;4815334;29;20254;-79
2022/05/03 18:37:56;;;;;;;6.72;3.42;;;17.00;90.80;;;;;;4830069;29;20038;-79
2022/05/03 18:40:23;;;;;;;5.38;3.40;;;17.00;90.90;;;;;;4831360;29;20043;-79
2022/05/03 18:42:52;;;;;;;6.15;3.28;;;16.90;91.10;;;;;;4867403;29;20029;-80
2022/05/03 18:45:27;;;;;;;9.15;3.65;;;16.80;90.50;;;;;;4892742;29;20024;-78
2022/05/03 18:51:02;;;;;;;10.65;3.30;;;16.60;90.80;;;;;;4909419;29;20195;-79
2022/05/03 18:56:52;;;;;;;8.70;3.80;;;16.30;91.80;;;;;;4908199;29;20072;-81
2022/05/03 18:59:51;;;;;;;5.22;3.60;;;16.20;91.60;;;;;;4901324;29;20024;-80
2022/05/03 19:02:23;;;;;;;6.00;4.25;;;16.20;91.70;;;;;;4888029;29;20060;-81
2022/05/03 19:04:49;;;;;;;5.32;3.60;;;16.10;91.60;;;;;;4909221;29;20028;-82
2022/05/03 19:07:25;;;;;;;7.97;4.82;;;16.00;92.40;;;;;;4909274;29;20024;-82
2022/05/03 19:10:09;;;;;;;9.15;5.60;;;16.00;92.70;;;;;;4909703;29;20089;-82
2022/05/03 19:12:44;;;;;;;6.53;4.43;;;15.80;92.70;;;;;;4909796;29;20033;-82
2022/05/03 19:15:25;;;;;;;7.30;5.50;;;15.80;92.90;;;;;;4911698;29;20044;-79
2022/05/03 19:18:41;;;;;;;8.73;5.65;;;15.80;93.00;;;;;;4862919;29;20097;-80
2022/05/03 19:22:02;;;;;;;6.88;3.88;;;15.70;93.30;;;;;;4894994;29;20968;-80
2022/05/03 19:36:03;;;;;;;5.75;3.70;;;15.70;91.70;;;;;;4909713;29;20219;-79
2022/05/03 19:38:29;;;;;;;6.25;4.00;;;15.60;91.90;;;;;;4910959;29;20056;-81
2022/05/03 19:41:27;;;;;;;5.13;3.88;;;15.50;92.10;;;;;;4892596;29;20028;-82
2022/05/03 19:47:41;;;;;;;7.35;4.25;;;15.40;92.70;;;;;;4909130;29;20048;-82
2022/05/03 19:50:07;;;;;;;10.80;4.72;;;15.40;93.10;;;;;;4894924;29;20052;-79
2022/05/03 19:52:33;;;;;;;6.60;4.53;;;15.30;93.00;;;;;;4885915;29;20393;-80
2022/05/03 20:02:48;;;;;;;7.53;5.20;;;15.10;93.70;;;;;;4874133;29;20117;-81
2022/05/03 20:12:37;;;;;;;10.25;5.35;;;15.00;93.90;;;;;;5100451;23;20060;-79
2022/05/03 20:15:05;;;;;;;6.57;4.93;;;14.90;94.00;;;;;;4891215;29;20076;-81
2022/05/03 20:17:31;;;;;;;8.98;5.82;;;14.90;94.00;;;;;;4897477;29;20029;-80
2022/05/03 20:19:57;;;;;;;8.95;5.65;;;14.80;94.40;;;;;;4887034;29;20043;-82
2022/05/03 20:22:24;;;;;;;6.70;4.97;;;14.70;94.60;;;;;;4897421;29;20370;-82
2022/05/03 20:24:49;;;;;;;8.35;5.22;;;14.70;94.50;;;;;;4887253;29;20032;-81
2022/05/03 20:31:03;;;;;;;6.53;4.65;;;14.80;93.90;;;;;;4909976;29;20051;-82
2022/05/03 20:40:53;;;;;;;7.30;5.25;;;14.50;95.10;;;;;;5167688;23;20131;-84
2022/05/03 20:43:38;;;;;;;6.55;5.05;;;14.30;95.30;;;;;;4896341;29;20302;-83
2022/05/03 20:49:39;;;;;;;8.75;5.28;;;14.10;96.00;;;;;;4911402;29;20092;-80
2022/05/03 20:52:06;;;;;;;8.27;5.50;;;13.90;96.30;;;;;;4897408;29;20234;-80
2022/05/03 20:54:32;;;;;;;7.75;5.30;;;13.90;96.90;;;;;;4882762;29;20107;-81
2022/05/03 20:57:01;;;;;;;7.07;5.47;;;13.80;97.00;;;;;;4887798;29;20082;-81
2022/05/03 20:59:30;;;;;;;8.10;6.15;;;13.80;97.20;;;;;;4875068;29;20085;-80
2022/05/03 21:01:59;;;;;;;8.95;6.28;;;13.70;97.50;;;;;;4883245;29;20037;-80
2022/05/03 21:04:24;;;;;;;9.93;6.68;;;13.60;97.50;;;;;;4901241;29;20136;-79
2022/05/03 21:06:53;;;;;;;8.45;5.50;;;13.50;98.10;;;;;;4897264;29;20099;-80
2022/05/03 21:09:19;;;;;;;8.55;5.47;;;13.50;97.90;;;;;;4884188;29;20028;-80
2022/05/03 21:11:45;;;;;;;7.65;5.57;;;13.40;98.00;;;;;;4877129;29;20311;-79
2022/05/03 21:14:11;;;;;;;7.22;5.30;;;13.40;98.20;;;;;;4856942;29;20033;-81
2022/05/03 21:16:37;;;;;;;10.10;6.43;;;13.30;98.80;;;;;;4889413;29;20044;-79
2022/05/03 21:19:03;;;;;;;9.32;6.63;;;13.20;98.90;;;;;;4900429;29;20040;-79
2022/05/03 21:21:32;;;;;;;8.27;6.28;;;13.20;98.90;;;;;;4880092;29;20024;-80
2022/05/03 21:24:04;;;;;;;8.70;6.68;;;13.10;99.40;;;;;;4871402;29;20150;-80
2022/05/03 21:37:33;;;;;;;9.18;6.63;;;13.00;99.90;;;;;;4982024;23;20048;-82
2022/05/03 21:39:58;;;;;;;8.85;6.57;;;12.90;99.90;;;;;;4913079;29;20102;-81